sensor_id;sensor_type;location;lat;lon;timestamp;P1;durP1;ratioP1;P2;durP2;ratioP2
71810;SDS011;59657;0.000;0.000;2023-02-13T00:00:18;1.38;;;1.27;;
71810;SDS011;59657;0.000;0.000;2023-02-13T00:02:45;1.48;;;1.38;;
71810;SDS011;59657;0.000;0.000;2023-02-13T00:05:12;1.73;;;1.55;;
71810;SDS011;59657;0.000;0.000;2023-02-13T00:07:38;1.77;;;1.67;;
71810;SDS011;59657;0.000;0.000;2023-02-13T00:12:31;1.60;;;1.48;;
71810;SDS011;59657;0.000;0.000;2023-02-13T00:14:58;1.75;;;1.63;;
71810;SDS011;59657;0.000;0.000;2023-02-13T00:17:25;1.60;;;1.50;;
71810;SDS011;59657;0.000;0.000;2023-02-13T00:19:51;2.13;;;1.90;;
71810;SDS011;59657;0.000;0.000;2023-02-13T00:24:44;1.83;;;1.13;;
71810;SDS011;59657;0.000;0.000;2023-02-13T00:29:37;1.58;;;1.48;;
71810;SDS011;59657;0.000;0.000;2023-02-13T00:34:29;1.75;;;1.65;;
71810;SDS011;59657;0.000;0.000;2023-02-13T00:39:22;1.90;;;1.73;;
71810;SDS011;59657;0.000;0.000;2023-02-13T00:44:15;2.03;;;1.67;;
71810;SDS011;59657;0.000;0.000;2023-02-13T00:49:07;1.98;;;1.88;;
71810;SDS011;59657;0.000;0.000;2023-02-13T00:54:00;1.80;;;1.70;;
71810;SDS011;59657;0.000;0.000;2023-02-13T00:58:53;1.90;;;1.48;;
71810;SDS011;59657;0.000;0.000;2023-02-13T01:03:45;1.75;;;1.65;;
71810;SDS011;59657;0.000;0.000;2023-02-13T01:08:38;1.63;;;1.50;;
71810;SDS011;59657;0.000;0.000;2023-02-13T01:11:06;1.63;;;1.52;;
71810;SDS011;59657;0.000;0.000;2023-02-13T01:13:32;1.85;;;1.63;;
71810;SDS011;59657;0.000;0.000;2023-02-13T01:15:59;1.65;;;1.55;;
71810;SDS011;59657;0.000;0.000;2023-02-13T01:18:26;1.67;;;1.40;;
71810;SDS011;59657;0.000;0.000;2023-02-13T01:20:54;1.60;;;1.50;;
71810;SDS011;59657;0.000;0.000;2023-02-13T01:23:21;1.58;;;1.48;;
71810;SDS011;59657;0.000;0.000;2023-02-13T01:28:16;2.90;;;1.98;;
71810;SDS011;59657;0.000;0.000;2023-02-13T01:30:42;2.13;;;2.00;;
71810;SDS011;59657;0.000;0.000;2023-02-13T01:35:37;2.20;;;1.98;;
71810;SDS011;59657;0.000;0.000;2023-02-13T01:38:04;1.67;;;1.58;;
71810;SDS011;59657;0.000;0.000;2023-02-13T01:40:31;1.73;;;1.60;;
71810;SDS011;59657;0.000;0.000;2023-02-13T01:45:25;2.22;;;2.03;;
71810;SDS011;59657;0.000;0.000;2023-02-13T01:47:54;2.10;;;1.95;;
71810;SDS011;59657;0.000;0.000;2023-02-13T01:53:10;1.77;;;1.67;;
71810;SDS011;59657;0.000;0.000;2023-02-13T01:55:43;1.67;;;1.58;;
71810;SDS011;59657;0.000;0.000;2023-02-13T01:58:11;1.52;;;1.48;;
71810;SDS011;59657;0.000;0.000;2023-02-13T02:00:39;1.35;;;1.25;;
71810;SDS011;59657;0.000;0.000;2023-02-13T02:03:14;1.85;;;1.75;;
71810;SDS011;59657;0.000;0.000;2023-02-13T02:05:43;1.75;;;1.65;;
71810;SDS011;59657;0.000;0.000;2023-02-13T02:08:11;2.33;;;1.88;;
71810;SDS011;59657;0.000;0.000;2023-02-13T02:10:38;1.38;;;1.30;;
71810;SDS011;59657;0.000;0.000;2023-02-13T02:13:14;2.40;;;1.80;;
71810;SDS011;59657;0.000;0.000;2023-02-13T02:15:43;1.85;;;1.75;;
71810;SDS011;59657;0.000;0.000;2023-02-13T02:18:18;1.90;;;1.73;;
71810;SDS011;59657;0.000;0.000;2023-02-13T02:26:14;1.75;;;1.40;;
71810;SDS011;59657;0.000;0.000;2023-02-13T02:28:52;1.88;;;1.77;;
71810;SDS011;59657;0.000;0.000;2023-02-13T02:34:09;1.67;;;1.40;;
71810;SDS011;59657;0.000;0.000;2023-02-13T02:42:09;2.22;;;1.77;;
71810;SDS011;59657;0.000;0.000;2023-02-13T02:44:50;1.92;;;1.83;;
71810;SDS011;59657;0.000;0.000;2023-02-13T02:50:21;1.67;;;1.58;;
71810;SDS011;59657;0.000;0.000;2023-02-13T02:52:56;1.52;;;1.42;;
71810;SDS011;59657;0.000;0.000;2023-02-13T02:57:51;2.10;;;1.63;;
71810;SDS011;59657;0.000;0.000;2023-02-13T03:00:36;1.67;;;1.58;;
71810;SDS011;59657;0.000;0.000;2023-02-13T03:03:17;2.55;;;2.35;;
71810;SDS011;59657;0.000;0.000;2023-02-13T03:05:55;1.50;;;1.40;;
71810;SDS011;59657;0.000;0.000;2023-02-13T03:08:36;1.83;;;1.73;;
71810;SDS011;59657;0.000;0.000;2023-02-13T03:11:15;1.67;;;1.52;;
71810;SDS011;59657;0.000;0.000;2023-02-13T03:13:55;1.55;;;1.45;;
71810;SDS011;59657;0.000;0.000;2023-02-13T03:16:23;1.65;;;1.52;;
71810;SDS011;59657;0.000;0.000;2023-02-13T03:19:11;1.83;;;1.73;;
71810;SDS011;59657;0.000;0.000;2023-02-13T03:22:00;1.55;;;1.52;;
71810;SDS011;59657;0.000;0.000;2023-02-13T03:27:37;2.42;;;1.83;;
71810;SDS011;59657;0.000;0.000;2023-02-13T03:30:46;1.67;;;1.58;;
71810;SDS011;59657;0.000;0.000;2023-02-13T03:38:58;2.10;;;1.88;;
71810;SDS011;59657;0.000;0.000;2023-02-13T03:41:28;1.58;;;1.48;;
71810;SDS011;59657;0.000;0.000;2023-02-13T03:46:38;1.73;;;1.63;;
71810;SDS011;59657;0.000;0.000;2023-02-13T03:49:06;1.67;;;1.58;;
71810;SDS011;59657;0.000;0.000;2023-02-13T03:51:48;1.75;;;1.65;;
71810;SDS011;59657;0.000;0.000;2023-02-13T03:54:17;1.58;;;1.48;;
71810;SDS011;59657;0.000;0.000;2023-02-13T03:56:46;2.38;;;1.65;;
71810;SDS011;59657;0.000;0.000;2023-02-13T03:59:27;2.35;;;2.00;;
71810;SDS011;59657;0.000;0.000;2023-02-13T04:02:11;1.65;;;1.55;;
71810;SDS011;59657;0.000;0.000;2023-02-13T04:04:42;2.72;;;2.63;;
71810;SDS011;59657;0.000;0.000;2023-02-13T04:07:11;1.88;;;1.77;;
71810;SDS011;59657;0.000;0.000;2023-02-13T04:09:54;1.65;;;1.55;;
71810;SDS011;59657;0.000;0.000;2023-02-13T04:12:25;1.52;;;1.42;;
71810;SDS011;59657;0.000;0.000;2023-02-13T04:14:57;1.98;;;1.88;;
71810;SDS011;59657;0.000;0.000;2023-02-13T04:17:31;1.90;;;1.73;;
71810;SDS011;59657;0.000;0.000;2023-02-13T04:19:59;1.95;;;1.85;;
71810;SDS011;59657;0.000;0.000;2023-02-13T04:24:51;1.80;;;1.63;;
71810;SDS011;59657;0.000;0.000;2023-02-13T04:29:44;2.75;;;2.53;;
71810;SDS011;59657;0.000;0.000;2023-02-13T04:34:38;2.72;;;1.92;;
71810;SDS011;59657;0.000;0.000;2023-02-13T04:39:31;1.98;;;1.88;;
71810;SDS011;59657;0.000;0.000;2023-02-13T04:44:23;1.73;;;1.63;;
71810;SDS011;59657;0.000;0.000;2023-02-13T04:46:50;1.92;;;1.83;;
71810;SDS011;59657;0.000;0.000;2023-02-13T04:49:16;2.03;;;1.92;;
71810;SDS011;59657;0.000;0.000;2023-02-13T04:54:09;2.10;;;1.88;;
71810;SDS011;59657;0.000;0.000;2023-02-13T04:56:36;2.17;;;2.03;;
71810;SDS011;59657;0.000;0.000;2023-02-13T04:59:03;1.77;;;1.67;;
71810;SDS011;59657;0.000;0.000;2023-02-13T05:03:55;1.85;;;1.75;;
71810;SDS011;59657;0.000;0.000;2023-02-13T05:08:48;2.03;;;1.92;;
71810;SDS011;59657;0.000;0.000;2023-02-13T05:13:41;2.05;;;1.75;;
71810;SDS011;59657;0.000;0.000;2023-02-13T05:18:33;2.00;;;1.88;;
71810;SDS011;59657;0.000;0.000;2023-02-13T05:23:45;2.35;;;2.15;;
71810;SDS011;59657;0.000;0.000;2023-02-13T05:26:11;2.22;;;2.03;;
71810;SDS011;59657;0.000;0.000;2023-02-13T05:31:15;1.90;;;1.80;;
71810;SDS011;59657;0.000;0.000;2023-02-13T05:36:08;2.35;;;2.15;;
71810;SDS011;59657;0.000;0.000;2023-02-13T05:41:01;2.45;;;1.77;;
71810;SDS011;59657;0.000;0.000;2023-02-13T05:43:27;2.60;;;2.17;;
71810;SDS011;59657;0.000;0.000;2023-02-13T05:46:02;1.70;;;1.50;;
71810;SDS011;59657;0.000;0.000;2023-02-13T05:48:29;1.98;;;1.88;;
71810;SDS011;59657;0.000;0.000;2023-02-13T05:50:56;2.70;;;2.22;;
71810;SDS011;59657;0.000;0.000;2023-02-13T05:53:23;2.45;;;2.25;;
71810;SDS011;59657;0.000;0.000;2023-02-13T05:55:49;2.53;;;2.33;;
71810;SDS011;59657;0.000;0.000;2023-02-13T05:58:17;2.28;;;2.08;;
71810;SDS011;59657;0.000;0.000;2023-02-13T06:00:44;2.85;;;2.35;;
71810;SDS011;59657;0.000;0.000;2023-02-13T06:03:10;2.67;;;2.47;;
71810;SDS011;59657;0.000;0.000;2023-02-13T06:08:03;2.53;;;2.28;;
71810;SDS011;59657;0.000;0.000;2023-02-13T06:12:56;2.45;;;2.25;;
71810;SDS011;59657;0.000;0.000;2023-02-13T06:15:22;2.80;;;2.28;;
71810;SDS011;59657;0.000;0.000;2023-02-13T06:20:15;2.72;;;2.53;;
71810;SDS011;59657;0.000;0.000;2023-02-13T06:25:08;2.97;;;2.67;;
71810;SDS011;59657;0.000;0.000;2023-02-13T06:27:34;2.88;;;2.45;;
71810;SDS011;59657;0.000;0.000;2023-02-13T06:30:01;2.97;;;2.65;;
71810;SDS011;59657;0.000;0.000;2023-02-13T06:32:27;2.78;;;2.40;;
71810;SDS011;59657;0.000;0.000;2023-02-13T06:34:54;3.13;;;2.67;;
71810;SDS011;59657;0.000;0.000;2023-02-13T06:39:46;3.05;;;2.75;;
71810;SDS011;59657;0.000;0.000;2023-02-13T06:42:13;2.85;;;2.47;;
71810;SDS011;59657;0.000;0.000;2023-02-13T06:44:39;3.50;;;2.78;;
71810;SDS011;59657;0.000;0.000;2023-02-13T06:47:06;4.28;;;3.20;;
71810;SDS011;59657;0.000;0.000;2023-02-13T06:49:32;3.05;;;2.75;;
71810;SDS011;59657;0.000;0.000;2023-02-13T06:51:59;3.08;;;2.45;;
71810;SDS011;59657;0.000;0.000;2023-02-13T06:54:25;2.58;;;2.38;;
71810;SDS011;59657;0.000;0.000;2023-02-13T06:59:18;2.55;;;2.35;;
71810;SDS011;59657;0.000;0.000;2023-02-13T07:01:44;3.55;;;3.25;;
71810;SDS011;59657;0.000;0.000;2023-02-13T07:04:11;2.00;;;1.90;;
71810;SDS011;59657;0.000;0.000;2023-02-13T07:06:38;2.30;;;2.15;;
71810;SDS011;59657;0.000;0.000;2023-02-13T07:09:04;2.47;;;2.25;;
71810;SDS011;59657;0.000;0.000;2023-02-13T07:11:31;2.25;;;2.05;;
71810;SDS011;59657;0.000;0.000;2023-02-13T07:13:57;1.80;;;1.70;;
71810;SDS011;59657;0.000;0.000;2023-02-13T07:16:24;2.40;;;2.20;;
71810;SDS011;59657;0.000;0.000;2023-02-13T07:18:50;2.65;;;2.17;;
71810;SDS011;59657;0.000;0.000;2023-02-13T07:21:17;2.50;;;2.30;;
71810;SDS011;59657;0.000;0.000;2023-02-13T07:23:43;3.10;;;2.53;;
71810;SDS011;59657;0.000;0.000;2023-02-13T07:26:10;2.53;;;2.33;;
71810;SDS011;59657;0.000;0.000;2023-02-13T07:31:03;2.90;;;2.28;;
71810;SDS011;59657;0.000;0.000;2023-02-13T07:33:30;2.50;;;2.30;;
71810;SDS011;59657;0.000;0.000;2023-02-13T07:35:57;3.30;;;2.58;;
71810;SDS011;59657;0.000;0.000;2023-02-13T07:40:50;2.88;;;2.50;;
71810;SDS011;59657;0.000;0.000;2023-02-13T07:43:16;2.60;;;2.40;;
71810;SDS011;59657;0.000;0.000;2023-02-13T07:45:43;2.42;;;2.13;;
71810;SDS011;59657;0.000;0.000;2023-02-13T07:48:11;2.20;;;1.88;;
71810;SDS011;59657;0.000;0.000;2023-02-13T07:50:37;1.83;;;1.67;;
71810;SDS011;59657;0.000;0.000;2023-02-13T07:53:04;2.45;;;2.35;;
71810;SDS011;59657;0.000;0.000;2023-02-13T07:55:30;3.50;;;2.45;;
71810;SDS011;59657;0.000;0.000;2023-02-13T07:57:58;2.78;;;2.58;;
71810;SDS011;59657;0.000;0.000;2023-02-13T08:00:26;2.47;;;2.25;;
71810;SDS011;59657;0.000;0.000;2023-02-13T08:02:52;2.67;;;2.47;;
71810;SDS011;59657;0.000;0.000;2023-02-13T08:05:19;1.92;;;1.83;;
71810;SDS011;59657;0.000;0.000;2023-02-13T08:07:45;2.72;;;2.20;;
71810;SDS011;59657;0.000;0.000;2023-02-13T08:10:12;2.58;;;2.38;;
71810;SDS011;59657;0.000;0.000;2023-02-13T08:12:55;2.13;;;2.03;;
71810;SDS011;59657;0.000;0.000;2023-02-13T08:15:22;2.75;;;2.25;;
71810;SDS011;59657;0.000;0.000;2023-02-13T08:17:49;2.58;;;2.20;;
71810;SDS011;59657;0.000;0.000;2023-02-13T08:20:15;2.38;;;2.17;;
71810;SDS011;59657;0.000;0.000;2023-02-13T08:22:42;2.45;;;2.25;;
71810;SDS011;59657;0.000;0.000;2023-02-13T08:25:08;2.55;;;2.35;;
71810;SDS011;59657;0.000;0.000;2023-02-13T08:27:35;5.50;;;3.42;;
71810;SDS011;59657;0.000;0.000;2023-02-13T08:30:02;5.53;;;4.07;;
71810;SDS011;59657;0.000;0.000;2023-02-13T08:32:28;3.38;;;3.08;;
71810;SDS011;59657;0.000;0.000;2023-02-13T08:34:55;2.47;;;2.28;;
71810;SDS011;59657;0.000;0.000;2023-02-13T08:37:22;2.60;;;2.40;;
71810;SDS011;59657;0.000;0.000;2023-02-13T08:39:48;2.08;;;1.88;;
71810;SDS011;59657;0.000;0.000;2023-02-13T08:42:15;2.50;;;2.30;;
71810;SDS011;59657;0.000;0.000;2023-02-13T08:44:42;2.85;;;2.28;;
71810;SDS011;59657;0.000;0.000;2023-02-13T08:47:09;2.67;;;2.00;;
71810;SDS011;59657;0.000;0.000;2023-02-13T08:49:35;2.10;;;1.90;;
71810;SDS011;59657;0.000;0.000;2023-02-13T08:52:02;2.05;;;1.95;;
71810;SDS011;59657;0.000;0.000;2023-02-13T08:54:30;2.25;;;2.05;;
71810;SDS011;59657;0.000;0.000;2023-02-13T08:56:56;1.77;;;1.67;;
71810;SDS011;59657;0.000;0.000;2023-02-13T08:59:23;2.38;;;2.17;;
71810;SDS011;59657;0.000;0.000;2023-02-13T09:01:50;2.10;;;1.90;;
71810;SDS011;59657;0.000;0.000;2023-02-13T09:04:16;2.47;;;2.28;;
71810;SDS011;59657;0.000;0.000;2023-02-13T09:06:43;1.80;;;1.70;;
71810;SDS011;59657;0.000;0.000;2023-02-13T09:11:35;2.38;;;2.17;;
71810;SDS011;59657;0.000;0.000;2023-02-13T09:16:28;2.08;;;1.95;;
71810;SDS011;59657;0.000;0.000;2023-02-13T09:18:55;2.58;;;2.15;;
71810;SDS011;59657;0.000;0.000;2023-02-13T09:21:21;1.58;;;1.58;;
71810;SDS011;59657;0.000;0.000;2023-02-13T09:23:48;2.08;;;1.98;;
71810;SDS011;59657;0.000;0.000;2023-02-13T09:26:17;2.35;;;2.15;;
71810;SDS011;59657;0.000;0.000;2023-02-13T09:28:44;2.55;;;2.35;;
71810;SDS011;59657;0.000;0.000;2023-02-13T09:31:12;2.08;;;1.98;;
71810;SDS011;59657;0.000;0.000;2023-02-13T09:33:40;2.17;;;1.98;;
71810;SDS011;59657;0.000;0.000;2023-02-13T09:36:08;2.15;;;1.95;;
71810;SDS011;59657;0.000;0.000;2023-02-13T09:38:35;2.10;;;1.88;;
71810;SDS011;59657;0.000;0.000;2023-02-13T09:41:04;2.05;;;1.90;;
71810;SDS011;59657;0.000;0.000;2023-02-13T09:43:36;2.17;;;1.98;;
71810;SDS011;59657;0.000;0.000;2023-02-13T09:46:05;2.00;;;1.85;;
71810;SDS011;59657;0.000;0.000;2023-02-13T09:48:35;1.60;;;1.50;;
71810;SDS011;59657;0.000;0.000;2023-02-13T09:51:02;2.08;;;1.95;;
71810;SDS011;59657;0.000;0.000;2023-02-13T09:53:29;2.05;;;1.85;;
71810;SDS011;59657;0.000;0.000;2023-02-13T09:56:09;1.75;;;1.65;;
71810;SDS011;59657;0.000;0.000;2023-02-13T09:58:53;1.73;;;1.63;;
71810;SDS011;59657;0.000;0.000;2023-02-13T10:01:24;1.88;;;1.77;;
71810;SDS011;59657;0.000;0.000;2023-02-13T10:04:01;2.33;;;2.13;;
71810;SDS011;59657;0.000;0.000;2023-02-13T10:06:37;2.30;;;2.08;;
71810;SDS011;59657;0.000;0.000;2023-02-13T10:09:20;1.88;;;1.77;;
71810;SDS011;59657;0.000;0.000;2023-02-13T10:14:44;2.53;;;2.33;;
71810;SDS011;59657;0.000;0.000;2023-02-13T10:17:15;2.15;;;1.92;;
71810;SDS011;59657;0.000;0.000;2023-02-13T10:19:44;2.03;;;1.90;;
71810;SDS011;59657;0.000;0.000;2023-02-13T10:22:14;2.25;;;2.10;;
71810;SDS011;59657;0.000;0.000;2023-02-13T10:24:46;2.13;;;1.95;;
71810;SDS011;59657;0.000;0.000;2023-02-13T10:27:22;2.20;;;2.03;;
71810;SDS011;59657;0.000;0.000;2023-02-13T10:29:58;2.28;;;2.15;;
71810;SDS011;59657;0.000;0.000;2023-02-13T10:32:41;2.38;;;2.17;;
71810;SDS011;59657;0.000;0.000;2023-02-13T10:35:15;2.13;;;1.92;;
71810;SDS011;59657;0.000;0.000;2023-02-13T10:37:43;2.17;;;1.98;;
71810;SDS011;59657;0.000;0.000;2023-02-13T10:40:15;2.53;;;2.33;;
71810;SDS011;59657;0.000;0.000;2023-02-13T10:42:44;1.75;;;1.63;;
71810;SDS011;59657;0.000;0.000;2023-02-13T10:45:23;2.22;;;1.95;;
71810;SDS011;59657;0.000;0.000;2023-02-13T10:56:03;2.22;;;2.03;;
71810;SDS011;59657;0.000;0.000;2023-02-13T11:04:04;1.98;;;1.88;;
71810;SDS011;59657;0.000;0.000;2023-02-13T11:06:32;1.88;;;1.77;;
71810;SDS011;59657;0.000;0.000;2023-02-13T11:08:58;2.10;;;1.77;;
71810;SDS011;59657;0.000;0.000;2023-02-13T11:11:29;2.30;;;1.85;;
71810;SDS011;59657;0.000;0.000;2023-02-13T11:14:29;2.20;;;2.00;;
71810;SDS011;59657;0.000;0.000;2023-02-13T11:16:58;2.33;;;2.22;;
71810;SDS011;59657;0.000;0.000;2023-02-13T11:19:34;2.38;;;2.15;;
71810;SDS011;59657;0.000;0.000;2023-02-13T11:22:04;2.50;;;1.63;;
71810;SDS011;59657;0.000;0.000;2023-02-13T11:24:31;2.35;;;2.20;;
71810;SDS011;59657;0.000;0.000;2023-02-13T11:27:02;2.55;;;2.35;;
71810;SDS011;59657;0.000;0.000;2023-02-13T11:29:34;1.95;;;1.85;;
71810;SDS011;59657;0.000;0.000;2023-02-13T11:32:02;2.00;;;1.90;;
71810;SDS011;59657;0.000;0.000;2023-02-13T11:34:30;2.35;;;2.15;;
71810;SDS011;59657;0.000;0.000;2023-02-13T11:39:39;2.63;;;2.42;;
71810;SDS011;59657;0.000;0.000;2023-02-13T11:44:48;2.45;;;2.28;;
71810;SDS011;59657;0.000;0.000;2023-02-13T11:47:15;3.00;;;2.80;;
71810;SDS011;59657;0.000;0.000;2023-02-13T11:49:54;2.25;;;2.05;;
71810;SDS011;59657;0.000;0.000;2023-02-13T11:52:23;1.73;;;1.63;;
71810;SDS011;59657;0.000;0.000;2023-02-13T11:54:59;2.58;;;2.38;;
71810;SDS011;59657;0.000;0.000;2023-02-13T11:57:29;2.22;;;2.00;;
71810;SDS011;59657;0.000;0.000;2023-02-13T11:59:56;1.85;;;1.75;;
71810;SDS011;59657;0.000;0.000;2023-02-13T12:02:24;1.85;;;1.75;;
71810;SDS011;59657;0.000;0.000;2023-02-13T12:04:52;2.50;;;2.22;;
71810;SDS011;59657;0.000;0.000;2023-02-13T12:07:24;2.33;;;2.15;;
71810;SDS011;59657;0.000;0.000;2023-02-13T12:09:53;1.95;;;1.85;;
71810;SDS011;59657;0.000;0.000;2023-02-13T12:14:59;2.22;;;2.03;;
71810;SDS011;59657;0.000;0.000;2023-02-13T12:17:27;2.33;;;2.15;;
71810;SDS011;59657;0.000;0.000;2023-02-13T12:19:55;2.63;;;2.42;;
71810;SDS011;59657;0.000;0.000;2023-02-13T12:22:30;2.15;;;2.05;;
71810;SDS011;59657;0.000;0.000;2023-02-13T12:27:50;2.17;;;2.08;;
71810;SDS011;59657;0.000;0.000;2023-02-13T12:30:26;2.15;;;2.00;;
71810;SDS011;59657;0.000;0.000;2023-02-13T12:33:18;2.28;;;2.08;;
71810;SDS011;59657;0.000;0.000;2023-02-13T12:38:24;2.65;;;2.17;;
71810;SDS011;59657;0.000;0.000;2023-02-13T12:41:05;2.22;;;1.85;;
71810;SDS011;59657;0.000;0.000;2023-02-13T12:49:10;2.22;;;2.13;;
71810;SDS011;59657;0.000;0.000;2023-02-13T12:59:53;2.60;;;2.40;;
71810;SDS011;59657;0.000;0.000;2023-02-13T13:02:35;2.60;;;2.13;;
71810;SDS011;59657;0.000;0.000;2023-02-13T13:05:07;2.22;;;2.13;;
71810;SDS011;59657;0.000;0.000;2023-02-13T13:07:46;2.10;;;2.00;;
71810;SDS011;59657;0.000;0.000;2023-02-13T13:10:18;2.30;;;2.10;;
71810;SDS011;59657;0.000;0.000;2023-02-13T13:12:54;3.28;;;2.33;;
71810;SDS011;59657;0.000;0.000;2023-02-13T13:15:58;2.13;;;1.92;;
71810;SDS011;59657;0.000;0.000;2023-02-13T13:21:01;1.98;;;1.88;;
71810;SDS011;59657;0.000;0.000;2023-02-13T13:23:36;2.10;;;1.90;;
71810;SDS011;59657;0.000;0.000;2023-02-13T13:26:11;1.75;;;1.65;;
71810;SDS011;59657;0.000;0.000;2023-02-13T13:28:41;1.73;;;1.63;;
71810;SDS011;59657;0.000;0.000;2023-02-13T13:31:09;2.13;;;1.98;;
71810;SDS011;59657;0.000;0.000;2023-02-13T13:33:38;2.08;;;1.92;;
71810;SDS011;59657;0.000;0.000;2023-02-13T13:38:54;1.95;;;1.85;;
71810;SDS011;59657;0.000;0.000;2023-02-13T13:46:56;2.03;;;1.90;;
71810;SDS011;59657;0.000;0.000;2023-02-13T13:52:09;2.03;;;1.92;;
71810;SDS011;59657;0.000;0.000;2023-02-13T13:54:35;2.17;;;2.03;;
71810;SDS011;59657;0.000;0.000;2023-02-13T14:05:35;1.38;;;1.27;;
71810;SDS011;59657;0.000;0.000;2023-02-13T14:07:51;1.88;;;1.77;;
71810;SDS011;59657;0.000;0.000;2023-02-13T14:13:05;1.85;;;1.75;;
71810;SDS011;59657;0.000;0.000;2023-02-13T14:15:49;2.30;;;2.13;;
71810;SDS011;59657;0.000;0.000;2023-02-13T14:18:19;2.47;;;2.28;;
71810;SDS011;59657;0.000;0.000;2023-02-13T14:20:51;1.85;;;1.75;;
71810;SDS011;59657;0.000;0.000;2023-02-13T14:23:27;1.67;;;1.58;;
71810;SDS011;59657;0.000;0.000;2023-02-13T14:26:29;2.65;;;2.45;;
71810;SDS011;59657;0.000;0.000;2023-02-13T14:28:57;3.00;;;2.80;;
71810;SDS011;59657;0.000;0.000;2023-02-13T14:31:27;1.67;;;1.58;;
71810;SDS011;59657;0.000;0.000;2023-02-13T14:36:45;2.20;;;2.10;;
71810;SDS011;59657;0.000;0.000;2023-02-13T14:39:18;2.65;;;2.45;;
71810;SDS011;59657;0.000;0.000;2023-02-13T14:41:56;2.05;;;1.85;;
71810;SDS011;59657;0.000;0.000;2023-02-13T14:47:21;1.85;;;1.75;;
71810;SDS011;59657;0.000;0.000;2023-02-13T14:49:48;2.83;;;2.53;;
71810;SDS011;59657;0.000;0.000;2023-02-13T14:52:18;2.50;;;2.28;;
71810;SDS011;59657;0.000;0.000;2023-02-13T14:54:53;1.88;;;1.77;;
71810;SDS011;59657;0.000;0.000;2023-02-13T14:57:22;1.73;;;1.63;;
71810;SDS011;59657;0.000;0.000;2023-02-13T14:59:54;2.47;;;2.08;;
71810;SDS011;59657;0.000;0.000;2023-02-13T15:02:23;2.25;;;2.05;;
71810;SDS011;59657;0.000;0.000;2023-02-13T15:04:55;2.08;;;1.98;;
71810;SDS011;59657;0.000;0.000;2023-02-13T15:07:23;1.80;;;1.70;;
71810;SDS011;59657;0.000;0.000;2023-02-13T15:09:54;2.30;;;2.17;;
71810;SDS011;59657;0.000;0.000;2023-02-13T15:12:32;2.22;;;2.13;;
71810;SDS011;59657;0.000;0.000;2023-02-13T15:14:59;2.78;;;2.58;;
71810;SDS011;59657;0.000;0.000;2023-02-13T15:17:27;2.03;;;1.92;;
71810;SDS011;59657;0.000;0.000;2023-02-13T15:19:59;2.60;;;2.40;;
71810;SDS011;59657;0.000;0.000;2023-02-13T15:24:53;1.98;;;1.83;;
71810;SDS011;59657;0.000;0.000;2023-02-13T15:27:24;2.00;;;1.90;;
71810;SDS011;59657;0.000;0.000;2023-02-13T15:29:54;2.38;;;2.17;;
71810;SDS011;59657;0.000;0.000;2023-02-13T15:32:25;2.22;;;2.13;;
71810;SDS011;59657;0.000;0.000;2023-02-13T15:34:51;2.17;;;2.05;;
71810;SDS011;59657;0.000;0.000;2023-02-13T15:37:20;2.58;;;2.38;;
71810;SDS011;59657;0.000;0.000;2023-02-13T15:39:48;2.45;;;2.30;;
71810;SDS011;59657;0.000;0.000;2023-02-13T15:44:40;2.10;;;2.00;;
71810;SDS011;59657;0.000;0.000;2023-02-13T15:47:20;1.90;;;1.80;;
71810;SDS011;59657;0.000;0.000;2023-02-13T15:49:48;2.13;;;2.03;;
71810;SDS011;59657;0.000;0.000;2023-02-13T15:52:17;2.47;;;2.28;;
71810;SDS011;59657;0.000;0.000;2023-02-13T15:54:47;2.22;;;2.13;;
71810;SDS011;59657;0.000;0.000;2023-02-13T15:57:14;2.05;;;1.95;;
71810;SDS011;59657;0.000;0.000;2023-02-13T15:59:40;2.08;;;1.98;;
71810;SDS011;59657;0.000;0.000;2023-02-13T16:02:11;3.05;;;2.75;;
71810;SDS011;59657;0.000;0.000;2023-02-13T16:04:39;2.78;;;2.58;;
71810;SDS011;59657;0.000;0.000;2023-02-13T16:07:08;2.22;;;2.13;;
71810;SDS011;59657;0.000;0.000;2023-02-13T16:09:36;2.75;;;2.55;;
71810;SDS011;59657;0.000;0.000;2023-02-13T16:14:29;2.80;;;2.60;;
71810;SDS011;59657;0.000;0.000;2023-02-13T16:16:57;2.17;;;2.00;;
71810;SDS011;59657;0.000;0.000;2023-02-13T16:19:30;2.42;;;2.22;;
71810;SDS011;59657;0.000;0.000;2023-02-13T16:21:59;3.25;;;2.90;;
71810;SDS011;59657;0.000;0.000;2023-02-13T16:24:27;2.72;;;2.53;;
71810;SDS011;59657;0.000;0.000;2023-02-13T16:26:54;2.25;;;2.15;;
71810;SDS011;59657;0.000;0.000;2023-02-13T16:29:22;2.10;;;2.00;;
71810;SDS011;59657;0.000;0.000;2023-02-13T16:31:51;2.80;;;2.60;;
71810;SDS011;59657;0.000;0.000;2023-02-13T16:34:23;3.63;;;3.33;;
71810;SDS011;59657;0.000;0.000;2023-02-13T16:36:51;2.60;;;2.40;;
71810;SDS011;59657;0.000;0.000;2023-02-13T16:39:19;2.00;;;1.90;;
71810;SDS011;59657;0.000;0.000;2023-02-13T16:41:46;2.92;;;2.72;;
71810;SDS011;59657;0.000;0.000;2023-02-13T16:46:39;2.90;;;2.60;;
71810;SDS011;59657;0.000;0.000;2023-02-13T16:49:16;1.90;;;1.80;;
71810;SDS011;59657;0.000;0.000;2023-02-13T16:51:48;2.58;;;2.38;;
71810;SDS011;59657;0.000;0.000;2023-02-13T16:54:20;2.90;;;2.70;;
71810;SDS011;59657;0.000;0.000;2023-02-13T16:59:34;2.42;;;2.33;;
71810;SDS011;59657;0.000;0.000;2023-02-13T17:07:15;3.13;;;2.88;;
71810;SDS011;59657;0.000;0.000;2023-02-13T17:09:42;2.20;;;2.00;;
71810;SDS011;59657;0.000;0.000;2023-02-13T17:12:11;2.70;;;2.50;;
71810;SDS011;59657;0.000;0.000;2023-02-13T17:14:39;2.72;;;2.53;;
71810;SDS011;59657;0.000;0.000;2023-02-13T17:17:10;3.10;;;2.78;;
71810;SDS011;59657;0.000;0.000;2023-02-13T17:19:37;2.08;;;1.98;;
71810;SDS011;59657;0.000;0.000;2023-02-13T17:22:03;3.78;;;2.92;;
71810;SDS011;59657;0.000;0.000;2023-02-13T17:24:30;3.35;;;3.03;;
71810;SDS011;59657;0.000;0.000;2023-02-13T17:26:56;3.63;;;3.30;;
71810;SDS011;59657;0.000;0.000;2023-02-13T17:31:52;2.38;;;2.25;;
71810;SDS011;59657;0.000;0.000;2023-02-13T17:34:21;4.28;;;3.85;;
71810;SDS011;59657;0.000;0.000;2023-02-13T17:36:48;4.80;;;4.18;;
71810;SDS011;59657;0.000;0.000;2023-02-13T17:41:42;3.03;;;2.75;;
71810;SDS011;59657;0.000;0.000;2023-02-13T17:44:12;4.97;;;4.05;;
71810;SDS011;59657;0.000;0.000;2023-02-13T17:46:39;5.68;;;4.72;;
71810;SDS011;59657;0.000;0.000;2023-02-13T17:49:06;4.97;;;4.13;;
71810;SDS011;59657;0.000;0.000;2023-02-13T17:53:58;3.70;;;3.30;;
71810;SDS011;59657;0.000;0.000;2023-02-13T17:58:51;5.32;;;4.53;;
71810;SDS011;59657;0.000;0.000;2023-02-13T18:03:44;4.43;;;3.80;;
71810;SDS011;59657;0.000;0.000;2023-02-13T18:08:38;3.63;;;3.33;;
71810;SDS011;59657;0.000;0.000;2023-02-13T18:11:09;4.82;;;3.80;;
71810;SDS011;59657;0.000;0.000;2023-02-13T18:13:36;3.35;;;3.05;;
71810;SDS011;59657;0.000;0.000;2023-02-13T18:16:07;3.60;;;3.30;;
71810;SDS011;59657;0.000;0.000;2023-02-13T18:18:33;3.35;;;3.05;;
71810;SDS011;59657;0.000;0.000;2023-02-13T18:23:26;3.50;;;3.25;;
71810;SDS011;59657;0.000;0.000;2023-02-13T18:28:19;2.63;;;2.42;;
71810;SDS011;59657;0.000;0.000;2023-02-13T18:30:45;3.10;;;2.80;;
71810;SDS011;59657;0.000;0.000;2023-02-13T18:33:12;3.75;;;3.40;;
71810;SDS011;59657;0.000;0.000;2023-02-13T18:38:05;3.67;;;2.63;;
71810;SDS011;59657;0.000;0.000;2023-02-13T18:42:58;3.13;;;2.83;;
71810;SDS011;59657;0.000;0.000;2023-02-13T18:45:25;2.47;;;2.30;;
71810;SDS011;59657;0.000;0.000;2023-02-13T18:47:51;3.35;;;2.75;;
71810;SDS011;59657;0.000;0.000;2023-02-13T18:50:18;3.85;;;3.22;;
71810;SDS011;59657;0.000;0.000;2023-02-13T18:52:45;3.60;;;3.30;;
71810;SDS011;59657;0.000;0.000;2023-02-13T18:57:37;4.60;;;4.10;;
71810;SDS011;59657;0.000;0.000;2023-02-13T19:00:07;4.65;;;4.05;;
71810;SDS011;59657;0.000;0.000;2023-02-13T19:02:34;3.70;;;3.40;;
71810;SDS011;59657;0.000;0.000;2023-02-13T19:07:27;4.30;;;3.88;;
71810;SDS011;59657;0.000;0.000;2023-02-13T19:09:54;4.18;;;3.65;;
71810;SDS011;59657;0.000;0.000;2023-02-13T19:14:46;3.13;;;2.67;;
71810;SDS011;59657;0.000;0.000;2023-02-13T19:17:13;4.65;;;3.50;;
71810;SDS011;59657;0.000;0.000;2023-02-13T19:22:06;4.97;;;3.60;;
71810;SDS011;59657;0.000;0.000;2023-02-13T19:24:32;3.50;;;2.63;;
71810;SDS011;59657;0.000;0.000;2023-02-13T19:26:59;2.55;;;2.35;;